createdAt,value
2022-10-19T00:01:41.991Z,14.32
2022-10-19T00:04:11.049Z,14.21
2022-10-19T00:06:40.276Z,14.10
2022-10-19T00:09:09.968Z,14.08
2022-10-19T00:11:40.168Z,13.94
2022-10-19T00:14:10.028Z,13.99
2022-10-19T00:16:39.869Z,14.02
2022-10-19T00:19:11.124Z,13.92
2022-10-19T00:21:40.384Z,14.02
2022-10-19T00:24:09.608Z,14.45
2022-10-19T00:26:39.615Z,14.45
2022-10-19T00:29:08.731Z,14.26
2022-10-19T00:31:37.929Z,14.08
2022-10-19T00:34:06.968Z,14.23
2022-10-19T00:36:39.123Z,14.19
2022-10-19T00:39:08.911Z,14.07
2022-10-19T00:41:38.283Z,14.12
2022-10-19T00:44:08.303Z,13.80
2022-10-19T00:46:37.986Z,13.94
2022-10-19T00:49:10.657Z,14.00
2022-10-19T00:51:42.571Z,14.07
2022-10-19T00:54:11.635Z,14.10
2022-10-19T00:56:41.538Z,14.22
2022-10-19T00:59:10.566Z,14.07
2022-10-19T01:01:39.912Z,14.08
2022-10-19T01:04:08.863Z,14.19
2022-10-19T01:06:38.130Z,14.19
2022-10-19T01:09:08.832Z,14.33
2022-10-19T01:11:41.331Z,13.89
2022-10-19T01:14:14.708Z,14.01
2022-10-19T01:16:47.292Z,14.01
2022-10-19T01:19:22.569Z,13.86
2022-10-19T01:21:52.122Z,13.79
2022-10-19T01:24:30.113Z,13.83
2022-10-19T01:27:23.845Z,13.77
2022-10-19T01:30:01.797Z,13.98
2022-10-19T01:32:32.963Z,13.99
2022-10-19T01:35:03.457Z,13.82
2022-10-19T01:37:35.152Z,13.85
2022-10-19T01:40:05.248Z,13.84
2022-10-19T01:42:35.945Z,13.99
2022-10-19T01:45:06.623Z,13.81
2022-10-19T01:47:36.851Z,13.67
2022-10-19T01:50:07.377Z,13.79
2022-10-19T01:52:36.768Z,13.80
2022-10-19T01:55:06.339Z,13.79
2022-10-19T01:57:36.624Z,13.63
2022-10-19T02:00:08.229Z,13.92
2022-10-19T02:02:38.035Z,14.01
2022-10-19T02:05:07.510Z,13.80
2022-10-19T02:07:36.732Z,13.68
2022-10-19T02:10:06.058Z,13.68
2022-10-19T02:12:35.554Z,13.79
2022-10-19T02:15:09.279Z,13.86
2022-10-19T02:17:39.643Z,13.64
2022-10-19T02:20:08.962Z,13.52
2022-10-19T02:22:38.177Z,13.62
2022-10-19T02:25:07.449Z,13.53
2022-10-19T02:27:36.734Z,13.57
2022-10-19T02:30:08.041Z,13.61
2022-10-19T02:32:37.297Z,13.56
2022-10-19T02:35:06.886Z,13.55
2022-10-19T02:40:10.550Z,13.66
2022-10-19T02:42:41.179Z,13.43
2022-10-19T02:45:12.249Z,13.76
2022-10-19T02:47:44.169Z,13.58
2022-10-19T02:50:13.406Z,13.41
2022-10-19T02:52:42.747Z,13.30
2022-10-19T02:55:11.708Z,13.78
2022-10-19T02:57:40.870Z,13.80
2022-10-19T03:00:11.910Z,13.48
2022-10-19T03:02:41.201Z,13.46
2022-10-19T03:05:10.663Z,13.70
2022-10-19T03:07:39.937Z,13.95
2022-10-19T03:10:09.183Z,14.00
2022-10-19T03:12:38.454Z,13.84
2022-10-19T03:15:07.948Z,13.93
2022-10-19T03:17:38.602Z,13.68
2022-10-19T03:20:08.079Z,13.49
2022-10-19T03:22:37.333Z,13.66
2022-10-19T03:25:06.674Z,13.86
2022-10-19T03:27:36.221Z,13.95
2022-10-19T03:30:05.756Z,13.93
2022-10-19T03:32:35.049Z,13.83
2022-10-19T03:35:05.725Z,13.95
2022-10-19T03:37:35.191Z,13.40
2022-10-19T03:40:04.545Z,13.47
2022-10-19T03:42:33.759Z,13.28
2022-10-19T03:45:02.765Z,13.42
2022-10-19T03:47:32.380Z,13.77
2022-10-19T03:50:01.628Z,13.67
2022-10-19T03:52:32.298Z,13.97
2022-10-19T03:55:01.321Z,13.86
2022-10-19T03:57:30.771Z,13.77
2022-10-19T03:59:59.789Z,13.77
2022-10-19T04:02:29.076Z,13.92
2022-10-19T04:04:58.016Z,13.91
2022-10-19T04:07:27.252Z,13.75
2022-10-19T04:09:57.736Z,13.27
2022-10-19T04:12:26.903Z,12.94
2022-10-19T04:14:57.772Z,13.53
2022-10-19T04:17:27.293Z,13.58
2022-10-19T04:19:56.308Z,13.39
2022-10-19T04:22:25.568Z,13.37
2022-10-19T04:24:54.984Z,13.16
2022-10-19T04:27:25.598Z,13.35
2022-10-19T04:29:54.563Z,13.30
2022-10-19T04:32:23.731Z,13.11
2022-10-19T04:34:52.788Z,13.00
2022-10-19T04:37:22.005Z,13.43
2022-10-19T04:39:51.015Z,13.63
2022-10-19T04:42:20.212Z,13.64
2022-10-19T04:44:50.654Z,13.59
2022-10-19T04:47:19.882Z,13.64
2022-10-19T04:49:48.853Z,13.53
2022-10-19T04:52:18.043Z,13.56
2022-10-19T04:54:47.128Z,13.30
2022-10-19T04:57:16.328Z,13.32
2022-10-19T04:59:45.345Z,13.36
2022-10-19T05:02:15.944Z,13.29
2022-10-19T05:04:45.286Z,13.12
2022-10-19T05:07:14.551Z,13.08
2022-10-19T05:09:43.521Z,13.11
2022-10-19T05:12:12.733Z,13.01
2022-10-19T05:14:42.906Z,13.14
2022-10-19T05:17:12.894Z,12.89
2022-10-19T05:19:43.458Z,13.11
2022-10-19T05:22:12.629Z,13.16
2022-10-19T05:24:41.630Z,12.84
2022-10-19T05:27:10.874Z,12.89
2022-10-19T05:29:39.848Z,12.82
2022-10-19T05:32:09.119Z,13.03
2022-10-19T05:34:38.142Z,13.04
2022-10-19T05:37:08.821Z,12.80
2022-10-19T05:39:37.851Z,12.91
2022-10-19T05:42:07.106Z,13.05
2022-10-19T05:44:36.164Z,13.04
2022-10-19T05:47:05.433Z,13.01
2022-10-19T05:49:34.423Z,12.91
2022-10-19T05:52:03.659Z,12.92
2022-10-19T05:54:34.055Z,12.42
2022-10-19T05:57:03.731Z,12.55
2022-10-19T05:59:32.811Z,12.73
2022-10-19T06:02:02.290Z,12.48
2022-10-19T06:04:31.365Z,12.52
2022-10-19T06:07:00.618Z,12.33
2022-10-19T06:09:34.943Z,12.66
2022-10-19T06:12:05.867Z,12.64
2022-10-19T06:14:34.942Z,12.44
2022-10-19T06:17:04.243Z,12.67
2022-10-19T06:19:33.235Z,12.49
2022-10-19T06:22:02.444Z,12.45
2022-10-19T06:24:34.630Z,12.54
2022-10-19T06:27:06.702Z,12.32
2022-10-19T06:29:35.915Z,12.23
2022-10-19T06:32:05.286Z,12.75
2022-10-19T06:34:34.292Z,12.47
2022-10-19T06:37:04.731Z,12.03
2022-10-19T06:39:35.109Z,12.56
2022-10-19T06:42:06.067Z,12.25
2022-10-19T06:44:35.097Z,12.56
2022-10-19T06:47:04.343Z,12.69
2022-10-19T06:49:36.024Z,12.42
2022-10-19T06:52:08.980Z,12.50
2022-10-19T06:54:38.129Z,12.51
2022-10-19T06:57:09.265Z,12.45
2022-10-19T06:59:38.263Z,12.72
2022-10-19T07:02:10.346Z,12.45
2022-10-19T07:04:39.392Z,12.64
2022-10-19T07:07:10.406Z,12.83
2022-10-19T07:09:41.733Z,12.80
2022-10-19T07:12:12.685Z,12.78
2022-10-19T07:14:41.725Z,12.75
2022-10-19T07:17:13.607Z,12.75
2022-10-19T07:19:42.745Z,12.87
2022-10-19T07:22:15.782Z,12.45
2022-10-19T07:24:49.644Z,12.71
2022-10-19T07:27:20.530Z,12.77
2022-10-19T07:29:49.668Z,12.46
2022-10-19T07:32:19.062Z,12.67
2022-10-19T07:34:48.624Z,12.70
2022-10-19T07:37:17.746Z,12.57
2022-10-19T07:39:46.968Z,12.37
2022-10-19T07:42:16.274Z,12.45
2022-10-19T07:44:46.728Z,12.42
2022-10-19T07:47:16.004Z,12.43
2022-10-19T07:49:45.425Z,12.72
2022-10-19T07:52:14.675Z,12.70
2022-10-19T07:54:43.724Z,12.53
2022-10-19T07:57:12.995Z,12.53
2022-10-19T07:59:42.027Z,12.69
2022-10-19T08:02:15.391Z,12.66
2022-10-19T08:05:02.793Z,12.68
2022-10-19T08:07:34.165Z,12.83
2022-10-19T08:10:03.182Z,12.78
2022-10-19T08:12:32.663Z,12.72
2022-10-19T08:15:01.933Z,12.76
2022-10-19T08:17:32.747Z,12.73
2022-10-19T08:20:01.779Z,12.70
2022-10-19T08:22:31.187Z,12.77
2022-10-19T08:25:00.311Z,12.80
2022-10-19T08:27:30.650Z,12.65
2022-10-19T08:29:59.747Z,12.61
2022-10-19T08:32:29.082Z,12.70
2022-10-19T08:34:59.678Z,12.72
2022-10-19T08:37:40.786Z,12.66
2022-10-19T08:40:17.573Z,12.66
2022-10-19T08:42:50.857Z,12.56
2022-10-19T08:45:33.378Z,12.66
2022-10-19T08:48:05.695Z,12.74
2022-10-19T08:50:38.061Z,12.61
2022-10-19T08:53:08.142Z,12.72
2022-10-19T08:55:41.365Z,12.67
2022-10-19T08:58:15.807Z,12.55
2022-10-19T09:00:45.346Z,12.56
2022-10-19T09:03:23.069Z,12.66
2022-10-19T09:06:12.970Z,12.72
2022-10-19T09:08:42.319Z,12.72
2022-10-19T09:11:11.425Z,12.57
2022-10-19T09:14:00.462Z,12.76
2022-10-19T09:16:30.730Z,12.95
2022-10-19T09:19:00.024Z,12.89
2022-10-19T09:21:47.436Z,12.99
2022-10-19T09:24:20.665Z,12.93
2022-10-19T09:26:51.221Z,13.01
2022-10-19T09:29:22.800Z,13.00
2022-10-19T09:31:52.791Z,13.01
2022-10-19T09:34:23.239Z,12.75
2022-10-19T09:36:53.958Z,12.51
2022-10-19T09:39:25.705Z,12.79
2022-10-19T09:41:58.365Z,12.71
2022-10-19T09:44:28.039Z,12.72
2022-10-19T09:46:59.455Z,12.67
2022-10-19T09:49:43.517Z,12.65
2022-10-19T09:52:27.287Z,12.62
2022-10-19T09:55:01.067Z,12.68
2022-10-19T09:57:30.562Z,12.79
2022-10-19T09:59:59.955Z,12.73
2022-10-19T10:02:32.445Z,12.80
2022-10-19T10:05:05.999Z,12.69
2022-10-19T10:07:37.401Z,12.63
2022-10-19T10:10:13.169Z,12.68
2022-10-19T10:12:42.250Z,12.65
2022-10-19T10:15:15.597Z,12.67
2022-10-19T10:17:45.925Z,12.72
2022-10-19T10:20:20.995Z,12.50
2022-10-19T10:22:57.043Z,12.59
2022-10-19T10:25:27.370Z,12.54
2022-10-19T10:27:57.785Z,12.46
2022-10-19T10:30:27.010Z,12.36
2022-10-19T10:32:57.999Z,12.39
2022-10-19T10:35:31.842Z,12.46
2022-10-19T10:38:14.555Z,12.41
2022-10-19T10:40:43.781Z,12.36
2022-10-19T10:43:14.748Z,12.42
2022-10-19T10:45:44.357Z,12.30
2022-10-19T10:48:18.337Z,12.51
2022-10-19T10:50:47.667Z,12.46
2022-10-19T10:53:46.885Z,12.63
2022-10-19T10:56:35.360Z,12.69
2022-10-19T10:59:06.670Z,12.45
2022-10-19T11:01:37.197Z,12.64
2022-10-19T11:04:06.501Z,12.72
2022-10-19T11:06:37.637Z,12.73
2022-10-19T11:09:09.450Z,12.67
2022-10-19T11:11:40.404Z,12.62
2022-10-19T11:14:26.529Z,12.57
2022-10-19T11:16:56.207Z,12.42
2022-10-19T11:19:26.009Z,12.46
2022-10-19T11:21:58.008Z,12.58
2022-10-19T11:27:09.382Z,12.38
2022-10-19T11:29:43.852Z,12.08
2022-10-19T11:32:14.568Z,12.52
2022-10-19T11:34:49.568Z,12.54
2022-10-19T11:37:21.665Z,12.65
2022-10-19T11:39:54.043Z,12.60
2022-10-19T11:42:24.562Z,12.58
2022-10-19T11:44:59.055Z,12.57
2022-10-19T11:47:34.849Z,12.57
2022-10-19T11:50:05.838Z,12.54
2022-10-19T11:52:36.515Z,12.55
2022-10-19T11:55:07.928Z,12.56
2022-10-19T11:57:38.632Z,12.57
2022-10-19T12:00:15.158Z,12.38
2022-10-19T12:03:09.755Z,12.28
2022-10-19T12:05:40.416Z,12.47
2022-10-19T12:08:14.358Z,12.35
2022-10-19T12:10:44.677Z,12.60
2022-10-19T12:13:14.713Z,12.37
2022-10-19T12:15:46.099Z,12.57
2022-10-19T12:18:16.144Z,12.61
2022-10-19T12:20:46.451Z,12.67
2022-10-19T12:23:22.440Z,12.71
2022-10-19T12:25:51.472Z,12.67
2022-10-19T12:28:22.656Z,12.72
2022-10-19T12:30:53.105Z,12.81
2022-10-19T12:33:23.900Z,12.94
2022-10-19T12:36:04.600Z,12.84
2022-10-19T12:38:38.733Z,12.81
2022-10-19T12:41:11.791Z,12.61
2022-10-19T12:43:42.655Z,12.66
2022-10-19T12:46:18.292Z,12.76
2022-10-19T12:48:47.551Z,12.72
2022-10-19T12:51:17.520Z,12.69
2022-10-19T12:53:49.171Z,12.82
2022-10-19T12:56:21.587Z,12.76
2022-10-19T12:58:53.173Z,12.72
2022-10-19T13:01:25.043Z,12.80
2022-10-19T13:03:55.468Z,12.84
2022-10-19T13:06:32.109Z,12.96
2022-10-19T13:09:02.506Z,13.02
2022-10-19T13:11:31.746Z,13.10
2022-10-19T13:14:01.805Z,13.06
2022-10-19T13:16:40.388Z,13.21
2022-10-19T13:19:19.940Z,13.32
2022-10-19T13:21:56.639Z,13.29
2022-10-19T13:24:30.813Z,13.29
2022-10-19T13:27:20.780Z,13.30
2022-10-19T13:29:50.098Z,13.24
2022-10-19T13:32:38.567Z,12.92
2022-10-19T13:35:27.363Z,12.89
2022-10-19T13:38:14.945Z,12.68
2022-10-19T13:40:57.336Z,12.56
2022-10-19T13:43:26.659Z,12.38
2022-10-19T13:45:55.999Z,12.45
2022-10-19T13:48:28.670Z,12.45
2022-10-19T13:51:03.845Z,12.44
2022-10-19T13:53:35.472Z,12.34
2022-10-19T13:56:22.585Z,12.38
2022-10-19T13:58:59.881Z,12.36
2022-10-19T14:01:31.879Z,12.40
2022-10-19T14:04:06.781Z,12.44
2022-10-19T14:06:37.944Z,12.49
2022-10-19T14:09:25.349Z,12.54
2022-10-19T14:11:54.963Z,12.59
2022-10-19T14:14:24.612Z,12.69
2022-10-19T14:16:58.273Z,12.64
2022-10-19T14:19:32.777Z,12.64
2022-10-19T14:22:02.675Z,12.55
2022-10-19T14:24:32.896Z,12.47
2022-10-19T14:27:02.773Z,12.38
2022-10-19T14:29:31.941Z,12.45
2022-10-19T14:32:01.304Z,12.45
2022-10-19T14:34:31.886Z,12.43
2022-10-19T14:37:01.212Z,12.38
2022-10-19T14:39:31.402Z,12.37
2022-10-19T14:42:04.544Z,12.34
2022-10-19T14:44:37.738Z,12.30
2022-10-19T14:47:20.593Z,12.25
2022-10-19T14:49:51.110Z,12.28
2022-10-19T14:52:21.789Z,12.26
2022-10-19T14:54:51.176Z,12.31
2022-10-19T14:57:22.002Z,12.26
2022-10-19T14:59:51.513Z,12.07
2022-10-19T15:02:22.567Z,12.03
2022-10-19T15:04:53.224Z,12.07
2022-10-19T15:07:23.967Z,11.98
2022-10-19T15:09:53.970Z,12.19
2022-10-19T15:12:26.263Z,12.05
2022-10-19T15:14:55.280Z,12.18
2022-10-19T15:17:28.908Z,12.18
2022-10-19T15:20:01.548Z,11.81
2022-10-19T15:22:38.802Z,11.94
2022-10-19T15:25:33.476Z,12.13
2022-10-19T15:28:22.167Z,11.92
2022-10-19T15:31:01.012Z,12.08
2022-10-19T15:33:30.317Z,11.91
2022-10-19T15:36:07.996Z,11.78
2022-10-19T15:38:37.285Z,11.98
2022-10-19T15:41:06.683Z,11.63
2022-10-19T15:43:37.786Z,11.50
2022-10-19T15:46:07.561Z,11.57
2022-10-19T15:48:51.071Z,11.92
2022-10-19T15:51:41.094Z,11.87
2022-10-19T15:54:10.482Z,11.67
2022-10-19T15:56:40.188Z,11.50
2022-10-19T15:59:12.520Z,11.75
2022-10-19T16:01:44.977Z,11.68
2022-10-19T16:04:14.369Z,11.77
2022-10-19T16:06:45.530Z,11.25
2022-10-19T16:09:15.898Z,11.41
2022-10-19T16:11:45.262Z,11.57
2022-10-19T16:14:14.676Z,11.49
2022-10-19T16:16:43.738Z,10.86
2022-10-19T16:19:13.334Z,11.43
2022-10-19T16:22:09.436Z,11.21
2022-10-19T16:24:55.591Z,11.32
2022-10-19T16:27:25.892Z,11.19
2022-10-19T16:29:55.587Z,11.17
2022-10-19T16:32:25.895Z,11.46
2022-10-19T16:34:55.564Z,11.45
2022-10-19T16:37:26.480Z,11.43
2022-10-19T16:39:57.567Z,11.44
2022-10-19T16:42:29.772Z,11.20
2022-10-19T16:45:02.045Z,11.04
2022-10-19T16:47:31.835Z,11.36
2022-10-19T16:50:01.954Z,11.22
2022-10-19T16:52:34.858Z,11.34
2022-10-19T16:55:23.804Z,11.36
2022-10-19T16:57:54.413Z,11.37
2022-10-19T17:00:26.113Z,11.36
2022-10-19T17:02:57.225Z,11.33
2022-10-19T17:05:26.830Z,10.81
2022-10-19T17:07:55.846Z,10.56
2022-10-19T17:10:25.174Z,11.04
2022-10-19T17:12:55.618Z,11.16
2022-10-19T17:15:42.079Z,10.81
2022-10-19T17:18:12.333Z,10.90
2022-10-19T17:20:44.211Z,10.69
2022-10-19T17:23:13.776Z,10.76
2022-10-19T17:25:47.717Z,10.35
2022-10-19T17:28:18.197Z,10.46
2022-10-19T17:30:49.257Z,10.82
2022-10-19T17:33:18.236Z,10.89
2022-10-19T17:35:47.444Z,10.28
2022-10-19T17:38:16.624Z,10.65
2022-10-19T17:40:45.904Z,10.81
2022-10-19T17:43:14.946Z,10.33
2022-10-19T17:45:45.696Z,10.37
2022-10-19T17:48:14.745Z,10.38
2022-10-19T17:50:44.016Z,10.18
2022-10-19T17:53:13.040Z,10.37
2022-10-19T17:55:42.315Z,10.48
2022-10-19T17:58:11.341Z,9.96
2022-10-19T18:00:41.197Z,9.65
2022-10-19T18:03:14.309Z,9.69
2022-10-19T18:05:43.681Z,10.08
2022-10-19T18:08:12.697Z,10.22
2022-10-19T18:10:42.063Z,10.11
2022-10-19T18:13:11.159Z,10.35
2022-10-19T18:15:40.427Z,10.50
2022-10-19T18:18:09.450Z,10.32
2022-10-19T18:20:41.469Z,10.50
2022-10-19T18:23:10.467Z,10.51
2022-10-19T18:25:53.427Z,10.61
2022-10-19T18:28:23.103Z,10.67
2022-10-19T18:30:52.533Z,10.60
2022-10-19T18:33:23.430Z,10.60
2022-10-19T18:35:54.185Z,10.44
2022-10-19T18:38:23.247Z,10.48
2022-10-19T18:40:52.759Z,10.42
2022-10-19T18:43:21.730Z,10.55
2022-10-19T18:45:54.070Z,10.62
2022-10-19T18:48:23.260Z,10.43
2022-10-19T18:50:54.173Z,10.54
2022-10-19T18:53:23.412Z,10.27
2022-10-19T18:56:02.345Z,10.41
2022-10-19T18:58:31.651Z,10.58
2022-10-19T19:01:04.411Z,9.86
2022-10-19T19:03:33.632Z,9.93
2022-10-19T19:06:04.830Z,10.35
2022-10-19T19:08:33.976Z,10.39
2022-10-19T19:11:10.622Z,9.94
2022-10-19T19:13:39.973Z,9.93
2022-10-19T19:16:14.582Z,10.42
2022-10-19T19:18:47.922Z,10.57
2022-10-19T19:21:28.862Z,10.44
2022-10-19T19:23:59.838Z,10.51
2022-10-19T19:26:30.100Z,10.37
2022-10-19T19:28:59.457Z,10.23
2022-10-19T19:31:29.112Z,10.31
2022-10-19T19:34:00.381Z,10.22
2022-10-19T19:36:31.208Z,10.36
2022-10-19T19:39:00.284Z,10.15
2022-10-19T19:41:31.359Z,10.16
2022-10-19T19:44:00.391Z,10.22
2022-10-19T19:46:29.703Z,10.26
2022-10-19T19:48:59.684Z,10.33
2022-10-19T19:51:31.486Z,10.12
2022-10-19T19:54:00.584Z,10.10
2022-10-19T19:56:30.154Z,9.81
2022-10-19T19:58:59.722Z,9.95
2022-10-19T20:01:29.041Z,9.90
2022-10-19T20:03:58.918Z,9.98
2022-10-19T20:06:28.296Z,9.95
2022-10-19T20:08:58.805Z,9.90
2022-10-19T20:11:28.710Z,9.97
2022-10-19T20:13:57.862Z,10.06
2022-10-19T20:16:29.293Z,9.99
2022-10-19T20:19:00.508Z,9.94
2022-10-19T20:21:31.777Z,10.00
2022-10-19T20:24:02.249Z,9.97
2022-10-19T20:26:31.625Z,9.89
2022-10-19T20:29:00.751Z,9.96
2022-10-19T20:31:31.466Z,9.99
2022-10-19T20:34:00.595Z,9.98
2022-10-19T20:36:29.895Z,9.95
2022-10-19T20:38:59.522Z,9.73
2022-10-19T20:41:30.268Z,9.78
2022-10-19T20:43:59.287Z,9.84
2022-10-19T20:46:29.204Z,9.76
2022-10-19T20:48:59.749Z,9.75
2022-10-19T20:51:31.845Z,9.72
2022-10-19T20:54:01.825Z,9.66
2022-10-19T20:56:33.341Z,9.75
2022-10-19T21:01:37.799Z,9.57
2022-10-19T21:04:07.063Z,9.64
2022-10-19T21:06:38.215Z,9.54
2022-10-19T21:09:07.243Z,9.15
2022-10-19T21:11:38.555Z,8.68
2022-10-19T21:14:08.276Z,9.36
2022-10-19T21:16:38.308Z,9.65
2022-10-19T21:19:07.893Z,9.65
2022-10-19T21:21:39.207Z,9.70
2022-10-19T21:24:09.381Z,9.70
2022-10-19T21:26:40.225Z,9.71
2022-10-19T21:29:09.856Z,9.43
2022-10-19T21:31:39.676Z,9.44
2022-10-19T21:34:09.321Z,9.51
2022-10-19T21:36:38.701Z,9.76
2022-10-19T21:39:07.620Z,9.69
2022-10-19T21:41:36.955Z,9.67
2022-10-19T21:44:07.545Z,9.63
2022-10-19T21:46:36.827Z,9.76
2022-10-19T21:49:05.797Z,9.70
2022-10-19T21:51:36.030Z,9.70
2022-10-19T21:54:06.873Z,9.73
2022-10-19T21:56:40.904Z,9.84
2022-10-19T21:59:22.090Z,9.67
2022-10-19T22:02:36.723Z,9.72
2022-10-19T22:05:06.187Z,9.57
2022-10-19T22:07:35.925Z,9.63
2022-10-19T22:10:05.692Z,9.68
2022-10-19T22:12:35.501Z,9.68
2022-10-19T22:15:06.706Z,9.81
2022-10-19T22:17:36.060Z,9.43
2022-10-19T22:20:05.897Z,9.28
2022-10-19T22:22:35.582Z,9.56
2022-10-19T22:25:09.463Z,9.47
2022-10-19T22:27:43.147Z,9.73
2022-10-19T22:30:13.981Z,9.77
2022-10-19T22:32:45.288Z,9.83
2022-10-19T22:35:14.400Z,9.88
2022-10-19T22:37:43.761Z,9.84
2022-10-19T22:40:13.429Z,9.82
2022-10-19T22:43:18.893Z,9.90
2022-10-19T22:45:49.832Z,9.96
2022-10-19T22:48:19.556Z,9.89
2022-10-19T22:50:48.671Z,9.86
2022-10-19T22:53:18.143Z,9.82
2022-10-19T22:55:47.276Z,9.70
2022-10-19T22:58:23.524Z,9.80
2022-10-19T23:01:02.489Z,9.92
2022-10-19T23:03:32.075Z,9.85
2022-10-19T23:06:05.025Z,9.80
2022-10-19T23:08:42.009Z,9.89
2022-10-19T23:11:15.254Z,9.66
2022-10-19T23:13:45.780Z,9.76
2022-10-19T23:16:16.353Z,9.65
2022-10-19T23:18:45.868Z,9.74
2022-10-19T23:21:15.245Z,9.73
2022-10-19T23:23:44.642Z,9.62
2022-10-19T23:26:14.511Z,9.72
2022-10-19T23:28:44.652Z,9.46
2022-10-19T23:31:14.805Z,9.10
2022-10-19T23:33:45.720Z,8.91
2022-10-19T23:36:16.965Z,8.89
2022-10-19T23:38:47.008Z,8.93
2022-10-19T23:41:16.386Z,8.93
2022-10-19T23:43:45.868Z,9.00
2022-10-19T23:46:15.161Z,9.04
2022-10-19T23:48:46.378Z,8.97
2022-10-19T23:51:16.188Z,9.02
2022-10-19T23:53:46.607Z,8.92
2022-10-19T23:56:16.680Z,8.83
2022-10-19T23:58:46.221Z,8.81
